createdAt,value
2022-12-15T00:00:04.936Z,107.00
2022-12-15T00:02:50.576Z,94.75
2022-12-15T00:05:35.983Z,96.93
2022-12-15T00:08:27.741Z,84.05
2022-12-15T00:11:12.958Z,95.97
2022-12-15T00:13:58.565Z,106.13
2022-12-15T00:16:43.676Z,87.43
2022-12-15T00:19:29.018Z,103.63
2022-12-15T00:22:14.210Z,83.15
2022-12-15T00:24:59.504Z,86.07
2022-12-15T00:27:44.950Z,84.17
2022-12-15T00:30:30.260Z,74.13
2022-12-15T00:33:15.593Z,89.60
2022-12-15T00:36:01.279Z,91.68
2022-12-15T00:38:43.536Z,83.38
2022-12-15T00:41:14.581Z,86.20
2022-12-15T00:43:42.746Z,105.60
2022-12-15T00:46:28.147Z,106.03
2022-12-15T00:48:54.834Z,91.45
2022-12-15T00:51:21.370Z,82.33
2022-12-15T00:54:06.711Z,77.38
2022-12-15T00:56:51.866Z,83.28
2022-12-15T00:59:37.330Z,85.90
2022-12-15T01:02:22.721Z,75.28
2022-12-15T01:05:08.645Z,95.15
2022-12-15T01:07:53.834Z,84.00
2022-12-15T01:10:39.159Z,69.43
2022-12-15T01:13:24.443Z,73.45
2022-12-15T01:16:10.005Z,88.03
2022-12-15T01:18:55.436Z,88.65
2022-12-15T01:21:25.028Z,85.75
2022-12-15T01:23:51.937Z,79.07
2022-12-15T01:26:18.431Z,83.47
2022-12-15T01:28:44.987Z,82.72
2022-12-15T01:31:11.742Z,78.28
2022-12-15T01:33:38.637Z,82.13
2022-12-15T01:36:05.327Z,95.78
2022-12-15T01:38:31.962Z,92.38
2022-12-15T01:40:59.990Z,87.00
2022-12-15T01:43:27.880Z,78.60
2022-12-15T01:45:54.747Z,84.97
2022-12-15T01:48:42.608Z,81.72
2022-12-15T01:51:12.538Z,85.95
2022-12-15T01:53:43.403Z,85.05
2022-12-15T01:56:11.254Z,84.72
2022-12-15T01:58:37.801Z,88.38
2022-12-15T02:01:04.474Z,83.93
2022-12-15T02:03:31.991Z,79.40
2022-12-15T02:05:59.942Z,79.97
2022-12-15T02:08:26.451Z,82.85
2022-12-15T02:11:06.837Z,84.55
2022-12-15T02:13:52.240Z,78.03
2022-12-15T02:16:25.084Z,71.82
2022-12-15T02:18:59.592Z,74.35
2022-12-15T02:21:28.255Z,80.70
2022-12-15T02:24:03.141Z,81.93
2022-12-15T02:26:41.831Z,88.68
2022-12-15T02:29:26.591Z,74.53
2022-12-15T02:31:54.973Z,68.28
2022-12-15T02:34:32.706Z,82.35
2022-12-15T02:36:59.875Z,77.57
2022-12-15T02:39:26.421Z,82.22
2022-12-15T02:41:53.149Z,79.22
2022-12-15T02:44:38.911Z,81.65
2022-12-15T02:47:15.302Z,85.15
2022-12-15T02:49:55.345Z,72.32
2022-12-15T02:52:51.320Z,74.32
2022-12-15T02:55:20.553Z,85.72
2022-12-15T02:58:03.458Z,86.53
2022-12-15T03:00:30.429Z,72.13
2022-12-15T03:02:57.041Z,61.85
2022-12-15T03:05:24.279Z,67.90
2022-12-15T03:07:51.228Z,73.03
2022-12-15T03:10:17.771Z,78.38
2022-12-15T03:12:45.182Z,64.32
2022-12-15T03:15:11.812Z,77.15
2022-12-15T03:17:38.408Z,65.18
2022-12-15T03:20:05.286Z,73.82
2022-12-15T03:22:31.881Z,65.53
2022-12-15T03:24:58.539Z,59.90
2022-12-15T03:30:11.178Z,92.55
2022-12-15T03:35:23.751Z,77.60
2022-12-15T03:37:51.023Z,82.75
2022-12-15T03:40:17.608Z,83.93
2022-12-15T03:42:50.489Z,74.80
2022-12-15T03:45:26.552Z,80.22
2022-12-15T03:47:53.098Z,88.30
2022-12-15T03:50:20.600Z,98.47
2022-12-15T03:52:55.530Z,98.68
2022-12-15T03:55:22.220Z,116.53
2022-12-15T03:57:49.294Z,139.77
2022-12-15T04:00:16.094Z,119.78
2022-12-15T04:02:43.087Z,85.65
2022-12-15T04:05:13.732Z,83.25
2022-12-15T04:07:40.241Z,71.30
2022-12-15T04:10:07.000Z,89.78
2022-12-15T04:12:33.581Z,74.22
2022-12-15T04:15:00.093Z,72.85
2022-12-15T04:17:26.660Z,66.32
2022-12-15T04:20:11.334Z,81.20
2022-12-15T04:22:38.632Z,83.15
2022-12-15T04:25:24.762Z,82.82
2022-12-15T04:28:10.013Z,81.15
2022-12-15T04:30:55.329Z,77.75
2022-12-15T04:33:40.935Z,90.20
2022-12-15T04:36:27.546Z,75.85
2022-12-15T04:39:12.930Z,82.57
2022-12-15T04:41:58.410Z,61.38
2022-12-15T04:44:44.048Z,65.70
2022-12-15T04:47:35.465Z,72.55
2022-12-15T04:50:20.864Z,58.83
2022-12-15T04:53:06.231Z,68.78
2022-12-15T04:55:54.793Z,91.10
2022-12-15T04:58:40.178Z,79.68
2022-12-15T05:01:25.750Z,70.20
2022-12-15T05:04:10.974Z,80.45
2022-12-15T05:06:57.457Z,79.15
2022-12-15T05:09:42.922Z,95.25
2022-12-15T05:12:28.259Z,84.47
2022-12-15T05:15:14.647Z,95.65
2022-12-15T05:17:59.842Z,98.57
2022-12-15T05:23:48.716Z,90.35
2022-12-15T05:26:34.005Z,69.97
2022-12-15T05:29:19.246Z,70.55
2022-12-15T05:31:51.915Z,76.00
2022-12-15T05:34:22.100Z,79.15
2022-12-15T05:36:49.194Z,97.28
2022-12-15T05:42:00.335Z,58.85
2022-12-15T05:44:26.898Z,65.80
2022-12-15T05:46:54.230Z,74.75
2022-12-15T05:49:21.112Z,72.68
2022-12-15T05:51:47.882Z,70.30
2022-12-15T05:54:16.664Z,65.88
2022-12-15T05:56:43.260Z,58.40
2022-12-15T05:59:10.051Z,57.78
2022-12-15T06:01:36.709Z,69.90
2022-12-15T06:04:03.736Z,63.75
2022-12-15T06:06:30.513Z,64.15
2022-12-15T06:08:57.008Z,67.40
2022-12-15T06:11:24.611Z,73.65
2022-12-15T06:13:51.161Z,64.25
2022-12-15T06:16:18.616Z,64.13
2022-12-15T06:18:49.931Z,99.70
2022-12-15T06:21:18.076Z,74.88
2022-12-15T06:23:44.703Z,64.45
2022-12-15T06:26:21.669Z,66.88
2022-12-15T06:28:48.557Z,58.22
2022-12-15T06:31:15.234Z,57.80
2022-12-15T06:33:41.963Z,76.97
2022-12-15T06:36:09.583Z,73.78
2022-12-15T06:38:36.176Z,74.25
2022-12-15T06:41:03.350Z,62.10
2022-12-15T06:43:30.948Z,70.78
2022-12-15T06:45:57.976Z,114.70
2022-12-15T06:48:24.663Z,98.03
2022-12-15T06:50:51.861Z,105.65
2022-12-15T06:53:18.960Z,90.43
2022-12-15T06:58:30.171Z,102.80
2022-12-15T07:03:41.319Z,86.90
2022-12-15T07:06:09.771Z,96.30
2022-12-15T07:08:41.305Z,98.32
2022-12-15T07:11:08.959Z,131.13
2022-12-15T07:13:35.472Z,106.05
2022-12-15T07:16:02.504Z,92.90
2022-12-15T07:18:29.530Z,72.40
2022-12-15T07:20:56.538Z,74.78
2022-12-15T07:23:39.945Z,82.78
2022-12-15T07:26:11.665Z,77.55
2022-12-15T07:28:38.478Z,75.82
2022-12-15T07:31:08.599Z,102.20
2022-12-15T07:33:35.590Z,80.05
2022-12-15T07:36:02.520Z,88.25
2022-12-15T07:38:29.325Z,71.63
2022-12-15T07:40:55.994Z,79.05
2022-12-15T07:43:22.907Z,75.25
2022-12-15T07:45:53.090Z,75.68
2022-12-15T07:48:19.939Z,81.13
2022-12-15T07:50:48.385Z,83.72
2022-12-15T07:53:17.619Z,74.57
2022-12-15T07:56:06.115Z,92.60
2022-12-15T07:58:30.657Z,76.13
2022-12-15T08:01:00.972Z,78.43
2022-12-15T08:03:28.049Z,88.35
2022-12-15T08:05:57.695Z,107.75
2022-12-15T08:08:29.042Z,84.32
2022-12-15T08:10:56.312Z,99.93
2022-12-15T08:14:00.342Z,95.80
2022-12-15T08:16:10.403Z,95.43
2022-12-15T08:18:36.972Z,95.05
2022-12-15T08:21:03.897Z,93.15
2022-12-15T08:23:31.134Z,108.60
2022-12-15T08:26:05.896Z,101.40
2022-12-15T08:31:17.623Z,159.87
2022-12-15T08:33:44.859Z,133.37
2022-12-15T08:36:11.856Z,145.30
2022-12-15T08:38:41.542Z,162.97
2022-12-15T08:43:53.386Z,205.57
2022-12-15T08:46:21.238Z,187.10
2022-12-15T08:48:49.997Z,203.93
2022-12-15T08:51:16.641Z,195.07
2022-12-15T08:56:27.561Z,176.00
2022-12-15T08:58:58.092Z,178.40
2022-12-15T09:01:28.701Z,163.00
2022-12-15T09:03:55.874Z,153.03
2022-12-15T09:06:23.366Z,159.27
2022-12-15T09:08:50.381Z,144.33
2022-12-15T09:11:17.511Z,149.37
2022-12-15T09:13:44.612Z,142.67
2022-12-15T09:16:14.828Z,141.77
2022-12-15T09:18:45.460Z,126.73
2022-12-15T09:21:12.095Z,124.50
2022-12-15T09:23:38.719Z,133.00
2022-12-15T09:26:05.276Z,133.80
2022-12-15T09:28:32.227Z,127.13
2022-12-15T09:31:05.432Z,117.97
2022-12-15T09:33:32.528Z,109.43
2022-12-15T09:35:59.296Z,97.03
2022-12-15T09:38:26.030Z,95.27
2022-12-15T09:40:52.561Z,90.03
2022-12-15T09:43:34.354Z,93.50
2022-12-15T09:46:03.162Z,70.20
2022-12-15T09:48:32.426Z,82.70
2022-12-15T09:50:58.992Z,73.30
2022-12-15T09:53:53.554Z,73.73
2022-12-15T09:56:22.464Z,72.60
2022-12-15T09:58:50.727Z,68.80
2022-12-15T10:01:17.569Z,72.43
2022-12-15T10:03:44.517Z,70.50
2022-12-15T10:06:16.139Z,68.57
2022-12-15T10:08:45.718Z,83.17
2022-12-15T10:11:12.312Z,76.73
2022-12-15T10:13:41.092Z,80.30
2022-12-15T10:16:14.061Z,83.47
2022-12-15T10:18:41.887Z,85.77
2022-12-15T10:21:09.616Z,75.37
2022-12-15T10:23:36.581Z,83.00
2022-12-15T10:26:20.580Z,81.47
2022-12-15T10:28:51.358Z,79.73
2022-12-15T10:31:37.139Z,64.63
2022-12-15T10:34:24.053Z,80.90
2022-12-15T10:36:51.249Z,67.97
2022-12-15T10:39:17.904Z,50.87
2022-12-15T10:41:44.439Z,58.43
2022-12-15T10:44:28.592Z,52.00
2022-12-15T10:46:58.703Z,43.53
2022-12-15T10:49:25.310Z,63.10
2022-12-15T10:51:54.455Z,66.70
2022-12-15T10:54:22.168Z,61.30
2022-12-15T10:56:52.841Z,66.03
2022-12-15T10:59:22.394Z,55.27
2022-12-15T11:01:49.393Z,69.57
2022-12-15T11:07:14.959Z,62.20
2022-12-15T11:09:41.519Z,55.83
2022-12-15T11:12:39.670Z,59.77
2022-12-15T11:18:12.873Z,58.23
2022-12-15T11:20:44.147Z,68.37
2022-12-15T11:23:18.760Z,56.30
2022-12-15T11:25:46.177Z,65.43
2022-12-15T11:28:18.748Z,63.27
2022-12-15T11:30:46.316Z,66.80
2022-12-15T11:33:12.956Z,65.43
2022-12-15T11:35:48.820Z,60.23
2022-12-15T11:38:15.540Z,60.43
2022-12-15T11:40:42.510Z,41.20
2022-12-15T11:43:19.045Z,71.63
2022-12-15T11:45:52.391Z,60.30
2022-12-15T11:48:20.855Z,64.77
2022-12-15T11:50:59.083Z,49.07
2022-12-15T11:54:01.224Z,60.33
2022-12-15T11:56:29.966Z,60.10
2022-12-15T11:59:09.094Z,53.50
2022-12-15T12:01:39.257Z,56.43
2022-12-15T12:04:21.149Z,53.67
2022-12-15T12:07:21.376Z,59.00
2022-12-15T12:09:54.216Z,54.47
2022-12-15T12:12:36.412Z,44.50
2022-12-15T12:15:21.546Z,39.40
2022-12-15T12:17:52.347Z,33.60
2022-12-15T12:20:19.497Z,47.60
2022-12-15T12:23:05.829Z,54.77
2022-12-15T12:25:42.454Z,56.23
2022-12-15T12:28:20.920Z,51.07
2022-12-15T12:30:48.694Z,56.63
2022-12-15T12:33:20.390Z,52.87
2022-12-15T12:35:48.871Z,49.30
2022-12-15T12:38:15.438Z,44.37
2022-12-15T12:41:01.054Z,49.50
2022-12-15T12:43:35.268Z,48.87
2022-12-15T12:46:03.999Z,52.70
2022-12-15T12:48:35.475Z,38.70
2022-12-15T12:51:20.715Z,22.43
2022-12-15T12:56:41.779Z,40.93
2022-12-15T12:59:27.119Z,46.13
2022-12-15T13:01:55.083Z,48.27
2022-12-15T13:04:31.003Z,39.83
2022-12-15T13:06:59.161Z,53.07
2022-12-15T13:09:39.069Z,28.30
2022-12-15T13:14:57.260Z,51.77
2022-12-15T13:17:31.101Z,56.50
2022-12-15T13:20:00.903Z,43.37
2022-12-15T13:22:34.049Z,69.50
2022-12-15T13:25:00.673Z,56.23
2022-12-15T13:27:36.609Z,64.20
2022-12-15T13:30:09.839Z,45.23
2022-12-15T13:32:40.113Z,57.47
2022-12-15T13:35:12.867Z,46.53
2022-12-15T13:37:50.645Z,58.00
2022-12-15T13:40:23.774Z,66.87
2022-12-15T13:43:00.121Z,34.83
2022-12-15T13:45:51.214Z,55.33
2022-12-15T13:48:26.188Z,37.03
2022-12-15T13:50:56.749Z,44.17
2022-12-15T13:53:23.378Z,42.93
2022-12-15T13:55:55.130Z,46.27
2022-12-15T13:58:21.988Z,46.43
2022-12-15T14:00:50.000Z,53.77
2022-12-15T14:03:18.074Z,58.00
2022-12-15T14:05:48.854Z,54.77
2022-12-15T14:08:21.691Z,42.50
2022-12-15T14:10:54.968Z,51.07
2022-12-15T14:13:23.240Z,60.10
2022-12-15T14:16:00.111Z,60.80
2022-12-15T14:18:28.045Z,59.80
2022-12-15T14:20:55.606Z,63.37
2022-12-15T14:23:23.563Z,83.07
2022-12-15T14:25:53.769Z,64.67
2022-12-15T14:28:30.544Z,64.80
2022-12-15T14:31:01.373Z,49.23
2022-12-15T14:33:29.779Z,69.63
2022-12-15T14:35:56.852Z,70.43
2022-12-15T14:38:28.268Z,31.37
2022-12-15T14:40:57.266Z,72.60
2022-12-15T14:43:25.474Z,68.83
2022-12-15T14:45:54.247Z,79.90
2022-12-15T14:48:40.969Z,55.93
2022-12-15T14:51:08.703Z,34.90
2022-12-15T14:53:36.654Z,47.40
2022-12-15T14:56:22.582Z,65.17
2022-12-15T14:59:17.375Z,37.57
2022-12-15T15:01:57.900Z,57.63
2022-12-15T15:03:05.151Z,46.63
2022-12-15T15:03:12.027Z,60.03
2022-12-15T15:04:32.998Z,71.27
2022-12-15T15:07:00.575Z,73.70
2022-12-15T15:09:31.033Z,81.83
2022-12-15T15:12:02.872Z,101.87
2022-12-15T15:14:38.768Z,103.00
2022-12-15T15:17:07.368Z,90.03
2022-12-15T15:19:39.109Z,84.50
2022-12-15T15:22:24.806Z,80.53
2022-12-15T15:24:51.760Z,83.27
2022-12-15T15:27:24.904Z,81.93
2022-12-15T15:29:51.918Z,56.43
2022-12-15T15:32:22.716Z,61.13
2022-12-15T15:34:51.426Z,47.13
2022-12-15T15:37:22.175Z,68.30
2022-12-15T15:39:50.559Z,67.10
2022-12-15T15:42:17.660Z,68.73
2022-12-15T15:44:48.505Z,83.27
2022-12-15T15:47:21.403Z,84.23
2022-12-15T15:49:49.758Z,83.10
2022-12-15T15:52:16.659Z,88.80
2022-12-15T15:54:43.372Z,98.53
2022-12-15T15:57:16.977Z,101.93
2022-12-15T15:59:44.430Z,81.33
2022-12-15T16:02:11.844Z,90.70
2022-12-15T16:04:42.189Z,97.23
2022-12-15T16:07:24.739Z,92.17
2022-12-15T16:09:51.570Z,96.10
2022-12-15T16:12:25.503Z,107.80
2022-12-15T16:14:52.223Z,103.97
2022-12-15T16:17:18.996Z,93.63
2022-12-15T16:19:46.143Z,102.73
2022-12-15T16:22:16.118Z,108.53
2022-12-15T16:24:44.048Z,52.80
2022-12-15T16:27:11.306Z,65.67
2022-12-15T16:29:37.955Z,109.40
2022-12-15T16:32:05.223Z,109.77
2022-12-15T16:34:32.307Z,86.87
2022-12-15T16:36:58.977Z,112.00
2022-12-15T16:39:29.222Z,97.63
2022-12-15T16:41:56.507Z,55.80
2022-12-15T16:44:23.599Z,89.83
2022-12-15T16:46:50.385Z,86.87
2022-12-15T16:49:17.036Z,79.83
2022-12-15T16:51:44.572Z,108.90
2022-12-15T16:54:15.706Z,80.03
2022-12-15T16:56:42.748Z,80.17
2022-12-15T16:59:32.387Z,98.10
2022-12-15T17:02:00.703Z,90.90
2022-12-15T17:04:27.545Z,106.90
2022-12-15T17:06:55.296Z,48.70
2022-12-15T17:09:22.879Z,53.57
2022-12-15T17:11:49.676Z,71.93
2022-12-15T17:14:16.879Z,77.23
2022-12-15T17:16:44.328Z,101.97
2022-12-15T17:19:13.926Z,87.77
2022-12-15T17:21:54.070Z,94.60
2022-12-15T17:24:21.205Z,34.53
2022-12-15T17:26:48.249Z,35.47
2022-12-15T17:29:14.970Z,76.80
2022-12-15T17:31:41.786Z,50.20
2022-12-15T17:34:29.087Z,45.80
2022-12-15T17:36:59.662Z,52.50
2022-12-15T17:39:27.574Z,56.63
2022-12-15T17:42:02.832Z,62.03
2022-12-15T17:44:37.814Z,47.40
2022-12-15T17:47:08.842Z,62.47
2022-12-15T17:49:38.735Z,48.93
2022-12-15T17:52:20.997Z,62.13
2022-12-15T17:54:47.649Z,56.80
2022-12-15T17:57:14.173Z,69.17
2022-12-15T17:59:41.332Z,49.13
2022-12-15T18:02:10.648Z,48.43
2022-12-15T18:04:37.346Z,94.97
2022-12-15T18:07:04.343Z,79.90
2022-12-15T18:09:31.136Z,33.30
2022-12-15T18:11:58.169Z,50.47
2022-12-15T18:14:25.312Z,37.40
2022-12-15T18:16:52.092Z,44.77
2022-12-15T18:19:20.284Z,62.00
2022-12-15T18:21:47.187Z,76.87
2022-12-15T18:24:14.620Z,50.30
2022-12-15T18:26:41.346Z,60.63
2022-12-15T18:29:17.841Z,72.63
2022-12-15T18:31:48.561Z,67.03
2022-12-15T18:34:19.455Z,71.87
2022-12-15T18:36:46.333Z,64.20
2022-12-15T18:39:19.896Z,36.60
2022-12-15T18:41:46.533Z,53.23
2022-12-15T18:44:23.126Z,46.43
2022-12-15T18:46:50.313Z,41.43
2022-12-15T18:49:17.443Z,47.60
2022-12-15T18:51:46.620Z,75.43
2022-12-15T18:54:15.209Z,53.03
2022-12-15T18:56:42.307Z,33.07
2022-12-15T18:59:15.842Z,45.77
2022-12-15T19:01:43.330Z,71.37
2022-12-15T19:04:09.993Z,40.97
2022-12-15T19:06:36.800Z,71.00
2022-12-15T19:09:04.638Z,45.57
2022-12-15T19:11:31.419Z,52.90
2022-12-15T19:13:59.590Z,54.80
2022-12-15T19:16:26.661Z,43.67
2022-12-15T19:19:17.225Z,49.27
2022-12-15T19:22:00.532Z,52.73
2022-12-15T19:24:46.719Z,63.03
2022-12-15T19:27:14.095Z,36.00
2022-12-15T19:29:40.864Z,90.80
2022-12-15T19:32:07.687Z,31.80
2022-12-15T19:34:34.624Z,54.50
2022-12-15T19:37:02.999Z,75.30
2022-12-15T19:39:29.727Z,53.87
2022-12-15T19:41:56.305Z,98.53
2022-12-15T19:44:23.118Z,84.43
2022-12-15T19:46:50.113Z,55.90
2022-12-15T19:49:19.757Z,68.47
2022-12-15T19:51:46.901Z,40.23
2022-12-15T19:54:17.359Z,66.77
2022-12-15T19:56:44.601Z,72.00
2022-12-15T19:59:18.676Z,66.93
2022-12-15T20:01:48.245Z,55.03
2022-12-15T20:04:17.344Z,45.13
2022-12-15T20:06:46.843Z,60.03
2022-12-15T20:09:18.428Z,88.40
2022-12-15T20:11:45.229Z,51.80
2022-12-15T20:14:12.936Z,48.90
2022-12-15T20:16:40.151Z,67.10
2022-12-15T20:19:06.846Z,71.67
2022-12-15T20:21:34.936Z,95.10
2022-12-15T20:24:11.472Z,101.80
2022-12-15T20:26:38.531Z,92.90
2022-12-15T20:29:06.502Z,83.17
2022-12-15T20:31:33.249Z,52.33
2022-12-15T20:34:01.980Z,83.43
2022-12-15T20:36:30.009Z,34.97
2022-12-15T20:38:56.881Z,66.43
2022-12-15T20:44:10.499Z,81.03
2022-12-15T20:46:38.234Z,75.87
2022-12-15T20:49:06.297Z,69.50
2022-12-15T20:51:32.983Z,57.20
2022-12-15T20:54:02.411Z,44.30
2022-12-15T20:56:29.280Z,51.53
2022-12-15T20:58:57.685Z,89.37
2022-12-15T21:01:26.713Z,78.53
2022-12-15T21:03:54.350Z,74.10
2022-12-15T21:06:21.250Z,52.00
2022-12-15T21:11:37.256Z,63.20
2022-12-15T21:16:48.581Z,79.10
2022-12-15T21:22:00.085Z,77.00
2022-12-15T21:24:27.640Z,72.77
2022-12-15T21:26:55.049Z,79.23
2022-12-15T21:29:22.431Z,65.33
2022-12-15T21:31:49.115Z,37.80
2022-12-15T21:34:16.014Z,68.60
2022-12-15T21:36:43.628Z,74.97
2022-12-15T21:39:12.220Z,74.20
2022-12-15T21:41:39.963Z,76.93
2022-12-15T21:44:10.768Z,72.30
2022-12-15T21:49:21.720Z,74.43
2022-12-15T21:51:52.078Z,77.57
2022-12-15T21:54:19.789Z,73.73
2022-12-15T21:56:47.664Z,60.90
2022-12-15T21:59:15.134Z,49.50
2022-12-15T22:01:41.983Z,69.70
2022-12-15T22:04:30.794Z,75.10
2022-12-15T22:06:58.346Z,75.87
2022-12-15T22:09:25.033Z,81.73
2022-12-15T22:11:53.995Z,85.43
2022-12-15T22:14:30.767Z,80.80
2022-12-15T22:16:58.357Z,55.37
2022-12-15T22:19:25.193Z,64.43
2022-12-15T22:21:52.247Z,40.10
2022-12-15T22:24:19.240Z,47.23
2022-12-15T22:26:46.621Z,42.40
2022-12-15T22:29:17.889Z,36.57
2022-12-15T22:31:44.621Z,41.43
2022-12-15T22:34:15.468Z,37.30
2022-12-15T22:36:43.937Z,45.83
2022-12-15T22:39:11.516Z,41.90
2022-12-15T22:41:42.221Z,67.00
2022-12-15T22:44:12.304Z,55.63
2022-12-15T22:46:39.042Z,61.93
2022-12-15T22:49:05.725Z,63.63
2022-12-15T22:51:32.398Z,29.87
2022-12-15T22:53:58.955Z,70.00
2022-12-15T22:56:30.727Z,59.83
2022-12-15T22:58:59.085Z,74.37
2022-12-15T23:01:25.908Z,76.63
2022-12-15T23:03:52.903Z,73.90
2022-12-15T23:06:19.619Z,63.70
2022-12-15T23:08:47.535Z,43.53
2022-12-15T23:11:34.436Z,61.97
2022-12-15T23:14:01.211Z,41.67
2022-12-15T23:16:27.951Z,71.47
2022-12-15T23:18:55.085Z,67.47
2022-12-15T23:21:21.947Z,47.17
2022-12-15T23:23:48.677Z,50.83
2022-12-15T23:28:59.945Z,58.27
2022-12-15T23:34:11.060Z,75.00
2022-12-15T23:39:22.635Z,62.03
2022-12-15T23:41:49.276Z,36.83
2022-12-15T23:44:16.176Z,49.10
2022-12-15T23:46:43.102Z,46.93
2022-12-15T23:49:10.334Z,56.20
2022-12-15T23:51:37.037Z,43.20
2022-12-15T23:54:03.862Z,56.13
2022-12-15T23:56:30.632Z,66.07
2022-12-15T23:58:58.027Z,57.47
